sensor_id;sensor_type;location;lat;lon;timestamp;P1;durP1;ratioP1;P2;durP2;ratioP2
77018;SDS011;66044;53.142;17.962;2023-12-28T00:01:40;30.30;;;15.60;;
77018;SDS011;66044;53.142;17.962;2023-12-28T00:04:06;40.70;;;19.60;;
77018;SDS011;66044;53.142;17.962;2023-12-28T00:06:33;30.80;;;15.60;;
77018;SDS011;66044;53.142;17.962;2023-12-28T00:08:59;26.00;;;14.30;;
77018;SDS011;66044;53.142;17.962;2023-12-28T00:11:29;33.20;;;16.60;;
77018;SDS011;66044;53.142;17.962;2023-12-28T00:13:55;40.10;;;17.50;;
77018;SDS011;66044;53.142;17.962;2023-12-28T00:16:21;29.80;;;13.80;;
77018;SDS011;66044;53.142;17.962;2023-12-28T00:18:49;33.90;;;16.40;;
77018;SDS011;66044;53.142;17.962;2023-12-28T00:21:15;33.50;;;15.20;;
77018;SDS011;66044;53.142;17.962;2023-12-28T00:23:42;28.50;;;14.70;;
77018;SDS011;66044;53.142;17.962;2023-12-28T00:26:08;32.60;;;15.40;;
77018;SDS011;66044;53.142;17.962;2023-12-28T00:28:34;26.90;;;13.20;;
77018;SDS011;66044;53.142;17.962;2023-12-28T00:31:01;27.80;;;14.00;;
77018;SDS011;66044;53.142;17.962;2023-12-28T00:33:27;36.10;;;16.10;;
77018;SDS011;66044;53.142;17.962;2023-12-28T00:35:54;29.50;;;13.30;;
77018;SDS011;66044;53.142;17.962;2023-12-28T00:38:20;33.40;;;15.00;;
77018;SDS011;66044;53.142;17.962;2023-12-28T00:40:47;33.00;;;14.00;;
77018;SDS011;66044;53.142;17.962;2023-12-28T00:43:13;33.10;;;15.60;;
77018;SDS011;66044;53.142;17.962;2023-12-28T00:45:40;38.40;;;16.40;;
77018;SDS011;66044;53.142;17.962;2023-12-28T00:48:06;32.50;;;14.20;;
77018;SDS011;66044;53.142;17.962;2023-12-28T00:50:33;36.30;;;15.30;;
77018;SDS011;66044;53.142;17.962;2023-12-28T00:52:59;24.80;;;11.60;;
77018;SDS011;66044;53.142;17.962;2023-12-28T00:55:26;29.60;;;13.90;;
77018;SDS011;66044;53.142;17.962;2023-12-28T00:57:54;34.30;;;15.30;;
77018;SDS011;66044;53.142;17.962;2023-12-28T01:00:20;29.00;;;13.70;;
77018;SDS011;66044;53.142;17.962;2023-12-28T01:02:47;31.10;;;13.80;;
77018;SDS011;66044;53.142;17.962;2023-12-28T01:05:17;39.60;;;17.20;;
77018;SDS011;66044;53.142;17.962;2023-12-28T01:07:43;33.80;;;14.30;;
77018;SDS011;66044;53.142;17.962;2023-12-28T01:10:10;27.40;;;13.50;;
77018;SDS011;66044;53.142;17.962;2023-12-28T01:12:37;41.70;;;16.50;;
77018;SDS011;66044;53.142;17.962;2023-12-28T01:15:04;37.00;;;15.80;;
77018;SDS011;66044;53.142;17.962;2023-12-28T01:17:30;29.90;;;14.10;;
77018;SDS011;66044;53.142;17.962;2023-12-28T01:19:57;27.90;;;13.70;;
77018;SDS011;66044;53.142;17.962;2023-12-28T01:22:23;24.50;;;11.50;;
77018;SDS011;66044;53.142;17.962;2023-12-28T01:24:50;28.50;;;13.20;;
77018;SDS011;66044;53.142;17.962;2023-12-28T01:27:17;30.70;;;14.30;;
77018;SDS011;66044;53.142;17.962;2023-12-28T01:29:44;40.60;;;16.20;;
77018;SDS011;66044;53.142;17.962;2023-12-28T01:32:10;34.10;;;14.80;;
77018;SDS011;66044;53.142;17.962;2023-12-28T01:34:37;31.40;;;13.80;;
77018;SDS011;66044;53.142;17.962;2023-12-28T01:37:03;22.10;;;11.20;;
77018;SDS011;66044;53.142;17.962;2023-12-28T01:39:29;20.00;;;11.10;;
77018;SDS011;66044;53.142;17.962;2023-12-28T01:41:56;30.50;;;14.30;;
77018;SDS011;66044;53.142;17.962;2023-12-28T01:44:22;34.00;;;16.00;;
77018;SDS011;66044;53.142;17.962;2023-12-28T01:46:49;25.10;;;12.00;;
77018;SDS011;66044;53.142;17.962;2023-12-28T01:49:16;34.60;;;15.00;;
77018;SDS011;66044;53.142;17.962;2023-12-28T01:51:43;29.70;;;13.50;;
77018;SDS011;66044;53.142;17.962;2023-12-28T01:54:11;32.50;;;13.50;;
77018;SDS011;66044;53.142;17.962;2023-12-28T01:56:38;22.00;;;11.10;;
77018;SDS011;66044;53.142;17.962;2023-12-28T01:59:04;24.70;;;12.30;;
77018;SDS011;66044;53.142;17.962;2023-12-28T02:01:31;37.40;;;15.80;;
77018;SDS011;66044;53.142;17.962;2023-12-28T02:03:58;35.10;;;14.60;;
77018;SDS011;66044;53.142;17.962;2023-12-28T02:06:25;30.50;;;14.20;;
77018;SDS011;66044;53.142;17.962;2023-12-28T02:08:52;32.60;;;13.90;;
77018;SDS011;66044;53.142;17.962;2023-12-28T02:11:18;33.00;;;13.70;;
77018;SDS011;66044;53.142;17.962;2023-12-28T02:13:46;23.00;;;11.10;;
77018;SDS011;66044;53.142;17.962;2023-12-28T02:16:13;25.60;;;12.10;;
77018;SDS011;66044;53.142;17.962;2023-12-28T02:19:00;27.90;;;11.10;;
77018;SDS011;66044;53.142;17.962;2023-12-28T02:21:35;26.00;;;12.60;;
77018;SDS011;66044;53.142;17.962;2023-12-28T02:24:02;24.90;;;11.80;;
77018;SDS011;66044;53.142;17.962;2023-12-28T02:26:29;22.80;;;9.60;;
77018;SDS011;66044;53.142;17.962;2023-12-28T02:28:55;24.10;;;11.80;;
77018;SDS011;66044;53.142;17.962;2023-12-28T02:31:26;27.10;;;11.50;;
77018;SDS011;66044;53.142;17.962;2023-12-28T02:33:59;25.90;;;12.10;;
77018;SDS011;66044;53.142;17.962;2023-12-28T02:36:32;25.80;;;10.90;;
77018;SDS011;66044;53.142;17.962;2023-12-28T02:39:01;29.70;;;12.00;;
77018;SDS011;66044;53.142;17.962;2023-12-28T02:41:29;26.40;;;12.50;;
77018;SDS011;66044;53.142;17.962;2023-12-28T02:43:58;30.60;;;12.90;;
77018;SDS011;66044;53.142;17.962;2023-12-28T02:46:24;31.10;;;13.50;;
77018;SDS011;66044;53.142;17.962;2023-12-28T02:48:51;20.70;;;9.40;;
77018;SDS011;66044;53.142;17.962;2023-12-28T02:51:19;29.20;;;12.60;;
77018;SDS011;66044;53.142;17.962;2023-12-28T02:53:45;26.80;;;12.90;;
77018;SDS011;66044;53.142;17.962;2023-12-28T02:56:12;21.90;;;9.50;;
77018;SDS011;66044;53.142;17.962;2023-12-28T02:58:38;27.20;;;12.30;;
77018;SDS011;66044;53.142;17.962;2023-12-28T03:01:04;25.30;;;11.40;;
77018;SDS011;66044;53.142;17.962;2023-12-28T03:03:31;36.30;;;15.70;;
77018;SDS011;66044;53.142;17.962;2023-12-28T03:05:57;29.70;;;13.20;;
77018;SDS011;66044;53.142;17.962;2023-12-28T03:08:24;26.40;;;12.40;;
77018;SDS011;66044;53.142;17.962;2023-12-28T03:10:50;29.00;;;12.90;;
77018;SDS011;66044;53.142;17.962;2023-12-28T03:13:19;24.80;;;12.00;;
77018;SDS011;66044;53.142;17.962;2023-12-28T03:15:45;27.40;;;12.20;;
77018;SDS011;66044;53.142;17.962;2023-12-28T03:18:11;22.20;;;10.70;;
77018;SDS011;66044;53.142;17.962;2023-12-28T03:20:38;23.10;;;10.00;;
77018;SDS011;66044;53.142;17.962;2023-12-28T03:23:04;24.30;;;11.50;;
77018;SDS011;66044;53.142;17.962;2023-12-28T03:25:31;22.70;;;9.00;;
77018;SDS011;66044;53.142;17.962;2023-12-28T03:27:57;20.30;;;9.60;;
77018;SDS011;66044;53.142;17.962;2023-12-28T03:30:24;19.80;;;9.30;;
77018;SDS011;66044;53.142;17.962;2023-12-28T03:32:50;20.20;;;8.70;;
77018;SDS011;66044;53.142;17.962;2023-12-28T03:35:17;18.70;;;9.60;;
77018;SDS011;66044;53.142;17.962;2023-12-28T03:37:43;18.80;;;8.70;;
77018;SDS011;66044;53.142;17.962;2023-12-28T03:40:10;21.00;;;9.60;;
77018;SDS011;66044;53.142;17.962;2023-12-28T03:42:37;19.60;;;9.40;;
77018;SDS011;66044;53.142;17.962;2023-12-28T03:45:04;19.50;;;8.70;;
77018;SDS011;66044;53.142;17.962;2023-12-28T03:47:31;21.50;;;9.30;;
77018;SDS011;66044;53.142;17.962;2023-12-28T03:49:57;19.60;;;8.70;;
77018;SDS011;66044;53.142;17.962;2023-12-28T03:52:27;18.50;;;8.30;;
77018;SDS011;66044;53.142;17.962;2023-12-28T03:54:56;21.50;;;10.20;;
77018;SDS011;66044;53.142;17.962;2023-12-28T03:57:22;24.30;;;9.40;;
77018;SDS011;66044;53.142;17.962;2023-12-28T03:59:49;25.50;;;10.60;;
77018;SDS011;66044;53.142;17.962;2023-12-28T04:02:15;21.50;;;9.50;;
77018;SDS011;66044;53.142;17.962;2023-12-28T04:04:42;25.50;;;10.80;;
77018;SDS011;66044;53.142;17.962;2023-12-28T04:07:08;16.80;;;7.70;;
77018;SDS011;66044;53.142;17.962;2023-12-28T04:09:35;20.30;;;9.50;;
77018;SDS011;66044;53.142;17.962;2023-12-28T04:12:02;17.10;;;7.80;;
77018;SDS011;66044;53.142;17.962;2023-12-28T04:14:28;26.60;;;10.90;;
77018;SDS011;66044;53.142;17.962;2023-12-28T04:16:54;28.80;;;11.20;;
77018;SDS011;66044;53.142;17.962;2023-12-28T04:19:21;25.00;;;10.80;;
77018;SDS011;66044;53.142;17.962;2023-12-28T04:21:47;24.20;;;10.00;;
77018;SDS011;66044;53.142;17.962;2023-12-28T04:24:14;27.30;;;10.40;;
77018;SDS011;66044;53.142;17.962;2023-12-28T04:26:40;25.20;;;10.80;;
77018;SDS011;66044;53.142;17.962;2023-12-28T04:29:07;33.70;;;12.90;;
77018;SDS011;66044;53.142;17.962;2023-12-28T04:31:33;23.20;;;8.60;;
77018;SDS011;66044;53.142;17.962;2023-12-28T04:34:00;37.80;;;14.50;;
77018;SDS011;66044;53.142;17.962;2023-12-28T04:36:26;46.00;;;16.70;;
77018;SDS011;66044;53.142;17.962;2023-12-28T04:38:53;36.50;;;14.50;;
77018;SDS011;66044;53.142;17.962;2023-12-28T04:41:20;32.30;;;12.30;;
77018;SDS011;66044;53.142;17.962;2023-12-28T04:43:47;29.70;;;11.50;;
77018;SDS011;66044;53.142;17.962;2023-12-28T04:46:13;24.90;;;10.60;;
77018;SDS011;66044;53.142;17.962;2023-12-28T04:48:39;20.00;;;8.10;;
77018;SDS011;66044;53.142;17.962;2023-12-28T04:51:06;17.40;;;7.80;;
77018;SDS011;66044;53.142;17.962;2023-12-28T04:53:32;15.50;;;7.00;;
77018;SDS011;66044;53.142;17.962;2023-12-28T04:56:00;14.70;;;7.10;;
77018;SDS011;66044;53.142;17.962;2023-12-28T04:58:26;13.20;;;6.50;;
77018;SDS011;66044;53.142;17.962;2023-12-28T05:00:53;16.00;;;7.20;;
77018;SDS011;66044;53.142;17.962;2023-12-28T05:03:19;16.10;;;7.60;;
77018;SDS011;66044;53.142;17.962;2023-12-28T05:05:46;15.20;;;7.80;;
77018;SDS011;66044;53.142;17.962;2023-12-28T05:08:12;15.40;;;7.60;;
77018;SDS011;66044;53.142;17.962;2023-12-28T05:10:39;18.60;;;8.00;;
77018;SDS011;66044;53.142;17.962;2023-12-28T05:13:05;19.00;;;8.20;;
77018;SDS011;66044;53.142;17.962;2023-12-28T05:15:31;15.20;;;7.30;;
77018;SDS011;66044;53.142;17.962;2023-12-28T05:17:58;18.50;;;8.90;;
77018;SDS011;66044;53.142;17.962;2023-12-28T05:20:24;16.50;;;7.90;;
77018;SDS011;66044;53.142;17.962;2023-12-28T05:22:51;14.50;;;6.90;;
77018;SDS011;66044;53.142;17.962;2023-12-28T05:25:17;14.40;;;6.90;;
77018;SDS011;66044;53.142;17.962;2023-12-28T05:27:44;15.70;;;7.90;;
77018;SDS011;66044;53.142;17.962;2023-12-28T05:30:10;17.80;;;9.00;;
77018;SDS011;66044;53.142;17.962;2023-12-28T05:32:37;13.20;;;6.20;;
77018;SDS011;66044;53.142;17.962;2023-12-28T05:35:04;20.10;;;9.70;;
77018;SDS011;66044;53.142;17.962;2023-12-28T05:37:31;17.00;;;9.10;;
77018;SDS011;66044;53.142;17.962;2023-12-28T05:39:58;15.60;;;8.00;;
77018;SDS011;66044;53.142;17.962;2023-12-28T05:42:24;20.60;;;9.70;;
77018;SDS011;66044;53.142;17.962;2023-12-28T05:44:50;18.60;;;9.20;;
77018;SDS011;66044;53.142;17.962;2023-12-28T05:47:17;24.40;;;11.70;;
77018;SDS011;66044;53.142;17.962;2023-12-28T05:49:43;22.10;;;10.30;;
77018;SDS011;66044;53.142;17.962;2023-12-28T05:52:10;20.60;;;10.70;;
77018;SDS011;66044;53.142;17.962;2023-12-28T05:54:36;21.30;;;11.20;;
77018;SDS011;66044;53.142;17.962;2023-12-28T05:57:03;17.50;;;8.90;;
77018;SDS011;66044;53.142;17.962;2023-12-28T05:59:29;24.00;;;11.60;;
77018;SDS011;66044;53.142;17.962;2023-12-28T06:01:55;20.40;;;10.40;;
77018;SDS011;66044;53.142;17.962;2023-12-28T06:04:22;25.30;;;11.20;;
77018;SDS011;66044;53.142;17.962;2023-12-28T06:06:48;16.00;;;8.50;;
77018;SDS011;66044;53.142;17.962;2023-12-28T06:09:15;21.10;;;10.10;;
77018;SDS011;66044;53.142;17.962;2023-12-28T06:11:41;16.60;;;8.10;;
77018;SDS011;66044;53.142;17.962;2023-12-28T06:14:08;19.70;;;10.50;;
77018;SDS011;66044;53.142;17.962;2023-12-28T06:16:35;16.80;;;9.20;;
77018;SDS011;66044;53.142;17.962;2023-12-28T06:19:01;18.60;;;9.80;;
77018;SDS011;66044;53.142;17.962;2023-12-28T06:21:28;15.60;;;8.30;;
77018;SDS011;66044;53.142;17.962;2023-12-28T06:23:56;13.70;;;7.60;;
77018;SDS011;66044;53.142;17.962;2023-12-28T06:26:23;17.80;;;8.70;;
77018;SDS011;66044;53.142;17.962;2023-12-28T06:28:49;15.40;;;7.50;;
77018;SDS011;66044;53.142;17.962;2023-12-28T06:31:15;16.40;;;8.10;;
77018;SDS011;66044;53.142;17.962;2023-12-28T06:33:42;17.80;;;8.10;;
77018;SDS011;66044;53.142;17.962;2023-12-28T06:36:10;19.80;;;9.90;;
77018;SDS011;66044;53.142;17.962;2023-12-28T06:38:38;16.80;;;9.10;;
77018;SDS011;66044;53.142;17.962;2023-12-28T06:41:11;13.60;;;6.80;;
77018;SDS011;66044;53.142;17.962;2023-12-28T06:43:38;15.30;;;8.10;;
77018;SDS011;66044;53.142;17.962;2023-12-28T06:46:05;13.20;;;6.80;;
77018;SDS011;66044;53.142;17.962;2023-12-28T06:48:31;14.00;;;7.10;;
77018;SDS011;66044;53.142;17.962;2023-12-28T06:50:57;13.60;;;7.20;;
77018;SDS011;66044;53.142;17.962;2023-12-28T06:53:24;17.60;;;7.90;;
77018;SDS011;66044;53.142;17.962;2023-12-28T06:55:50;14.60;;;6.90;;
77018;SDS011;66044;53.142;17.962;2023-12-28T06:58:17;13.00;;;6.80;;
77018;SDS011;66044;53.142;17.962;2023-12-28T07:00:43;14.30;;;6.80;;
77018;SDS011;66044;53.142;17.962;2023-12-28T07:03:11;12.80;;;6.20;;
77018;SDS011;66044;53.142;17.962;2023-12-28T07:05:37;13.20;;;6.10;;
77018;SDS011;66044;53.142;17.962;2023-12-28T07:08:04;13.20;;;6.10;;
77018;SDS011;66044;53.142;17.962;2023-12-28T07:10:31;13.60;;;7.10;;
77018;SDS011;66044;53.142;17.962;2023-12-28T07:12:58;12.00;;;5.90;;
77018;SDS011;66044;53.142;17.962;2023-12-28T07:15:24;13.10;;;7.00;;
77018;SDS011;66044;53.142;17.962;2023-12-28T07:17:51;12.20;;;5.50;;
77018;SDS011;66044;53.142;17.962;2023-12-28T07:20:17;12.50;;;5.90;;
77018;SDS011;66044;53.142;17.962;2023-12-28T07:22:44;12.60;;;5.90;;
77018;SDS011;66044;53.142;17.962;2023-12-28T07:25:10;11.50;;;5.60;;
77018;SDS011;66044;53.142;17.962;2023-12-28T07:27:37;14.50;;;5.80;;
77018;SDS011;66044;53.142;17.962;2023-12-28T07:30:04;12.70;;;5.40;;
77018;SDS011;66044;53.142;17.962;2023-12-28T07:32:31;12.10;;;6.60;;
77018;SDS011;66044;53.142;17.962;2023-12-28T07:34:57;12.80;;;5.90;;
77018;SDS011;66044;53.142;17.962;2023-12-28T07:37:25;12.00;;;6.10;;
77018;SDS011;66044;53.142;17.962;2023-12-28T07:39:52;12.70;;;6.50;;
77018;SDS011;66044;53.142;17.962;2023-12-28T07:42:20;13.60;;;6.50;;
77018;SDS011;66044;53.142;17.962;2023-12-28T07:44:46;12.20;;;6.00;;
77018;SDS011;66044;53.142;17.962;2023-12-28T07:47:14;12.80;;;6.10;;
77018;SDS011;66044;53.142;17.962;2023-12-28T07:49:41;10.30;;;5.10;;
77018;SDS011;66044;53.142;17.962;2023-12-28T07:52:07;10.10;;;5.20;;
77018;SDS011;66044;53.142;17.962;2023-12-28T07:54:34;10.80;;;5.10;;
77018;SDS011;66044;53.142;17.962;2023-12-28T07:57:00;11.40;;;5.10;;
77018;SDS011;66044;53.142;17.962;2023-12-28T07:59:27;10.70;;;4.70;;
77018;SDS011;66044;53.142;17.962;2023-12-28T08:01:53;15.90;;;4.80;;
77018;SDS011;66044;53.142;17.962;2023-12-28T08:04:20;13.20;;;5.80;;
77018;SDS011;66044;53.142;17.962;2023-12-28T08:06:46;13.10;;;5.50;;
77018;SDS011;66044;53.142;17.962;2023-12-28T08:09:13;11.50;;;5.10;;
77018;SDS011;66044;53.142;17.962;2023-12-28T08:11:39;11.90;;;4.90;;
77018;SDS011;66044;53.142;17.962;2023-12-28T08:14:05;9.60;;;4.70;;
77018;SDS011;66044;53.142;17.962;2023-12-28T08:16:32;10.00;;;4.90;;
77018;SDS011;66044;53.142;17.962;2023-12-28T08:18:58;11.50;;;5.70;;
77018;SDS011;66044;53.142;17.962;2023-12-28T08:21:25;12.00;;;5.80;;
77018;SDS011;66044;53.142;17.962;2023-12-28T08:23:51;12.10;;;6.10;;
77018;SDS011;66044;53.142;17.962;2023-12-28T08:26:18;10.00;;;5.20;;
77018;SDS011;66044;53.142;17.962;2023-12-28T08:28:44;9.00;;;4.80;;
77018;SDS011;66044;53.142;17.962;2023-12-28T08:31:10;9.60;;;4.20;;
77018;SDS011;66044;53.142;17.962;2023-12-28T08:33:37;10.10;;;4.50;;
77018;SDS011;66044;53.142;17.962;2023-12-28T08:36:06;8.90;;;4.20;;
77018;SDS011;66044;53.142;17.962;2023-12-28T08:38:34;7.70;;;3.80;;
77018;SDS011;66044;53.142;17.962;2023-12-28T08:41:00;9.90;;;4.40;;
77018;SDS011;66044;53.142;17.962;2023-12-28T08:43:29;10.10;;;5.10;;
77018;SDS011;66044;53.142;17.962;2023-12-28T08:45:56;12.70;;;6.30;;
77018;SDS011;66044;53.142;17.962;2023-12-28T08:48:22;11.00;;;5.50;;
77018;SDS011;66044;53.142;17.962;2023-12-28T08:50:49;10.70;;;5.30;;
77018;SDS011;66044;53.142;17.962;2023-12-28T08:53:15;13.60;;;6.80;;
77018;SDS011;66044;53.142;17.962;2023-12-28T08:55:42;12.00;;;6.00;;
77018;SDS011;66044;53.142;17.962;2023-12-28T08:58:08;9.70;;;5.30;;
77018;SDS011;66044;53.142;17.962;2023-12-28T09:00:34;10.70;;;5.60;;
77018;SDS011;66044;53.142;17.962;2023-12-28T09:03:01;10.80;;;5.20;;
77018;SDS011;66044;53.142;17.962;2023-12-28T09:05:27;12.00;;;5.30;;
77018;SDS011;66044;53.142;17.962;2023-12-28T09:07:54;11.10;;;4.80;;
77018;SDS011;66044;53.142;17.962;2023-12-28T09:10:20;10.10;;;4.90;;
77018;SDS011;66044;53.142;17.962;2023-12-28T09:12:47;8.10;;;3.90;;
77018;SDS011;66044;53.142;17.962;2023-12-28T09:15:14;10.20;;;5.10;;
77018;SDS011;66044;53.142;17.962;2023-12-28T09:17:41;11.60;;;5.00;;
77018;SDS011;66044;53.142;17.962;2023-12-28T09:20:07;10.50;;;5.30;;
77018;SDS011;66044;53.142;17.962;2023-12-28T09:22:34;9.60;;;4.20;;
77018;SDS011;66044;53.142;17.962;2023-12-28T09:25:01;9.40;;;4.10;;
77018;SDS011;66044;53.142;17.962;2023-12-28T09:27:28;10.80;;;4.50;;
77018;SDS011;66044;53.142;17.962;2023-12-28T09:29:54;8.80;;;4.60;;
77018;SDS011;66044;53.142;17.962;2023-12-28T09:32:21;8.70;;;4.10;;
77018;SDS011;66044;53.142;17.962;2023-12-28T09:34:47;9.60;;;4.30;;
77018;SDS011;66044;53.142;17.962;2023-12-28T09:37:14;9.00;;;4.40;;
77018;SDS011;66044;53.142;17.962;2023-12-28T09:39:40;9.40;;;4.70;;
77018;SDS011;66044;53.142;17.962;2023-12-28T09:42:14;9.20;;;4.80;;
77018;SDS011;66044;53.142;17.962;2023-12-28T09:44:48;8.80;;;4.20;;
77018;SDS011;66044;53.142;17.962;2023-12-28T09:47:15;10.10;;;4.90;;
77018;SDS011;66044;53.142;17.962;2023-12-28T09:49:43;8.30;;;4.20;;
77018;SDS011;66044;53.142;17.962;2023-12-28T09:52:11;9.10;;;4.40;;
77018;SDS011;66044;53.142;17.962;2023-12-28T09:54:38;8.90;;;4.70;;
77018;SDS011;66044;53.142;17.962;2023-12-28T09:57:04;14.20;;;5.20;;
77018;SDS011;66044;53.142;17.962;2023-12-28T09:59:31;11.10;;;5.30;;
77018;SDS011;66044;53.142;17.962;2023-12-28T10:02:00;9.70;;;4.90;;
77018;SDS011;66044;53.142;17.962;2023-12-28T10:04:28;9.30;;;4.70;;
77018;SDS011;66044;53.142;17.962;2023-12-28T10:06:55;10.40;;;4.90;;
77018;SDS011;66044;53.142;17.962;2023-12-28T10:09:21;11.40;;;5.40;;
77018;SDS011;66044;53.142;17.962;2023-12-28T10:11:48;9.80;;;5.00;;
77018;SDS011;66044;53.142;17.962;2023-12-28T10:14:15;11.30;;;5.10;;
77018;SDS011;66044;53.142;17.962;2023-12-28T10:16:41;11.00;;;4.90;;
77018;SDS011;66044;53.142;17.962;2023-12-28T10:19:08;8.30;;;4.20;;
77018;SDS011;66044;53.142;17.962;2023-12-28T10:21:34;9.50;;;4.50;;
77018;SDS011;66044;53.142;17.962;2023-12-28T10:24:01;9.80;;;4.30;;
77018;SDS011;66044;53.142;17.962;2023-12-28T10:26:28;9.90;;;4.10;;
77018;SDS011;66044;53.142;17.962;2023-12-28T10:29:01;9.70;;;4.30;;
77018;SDS011;66044;53.142;17.962;2023-12-28T10:31:31;8.70;;;4.20;;
77018;SDS011;66044;53.142;17.962;2023-12-28T10:33:58;11.40;;;4.60;;
77018;SDS011;66044;53.142;17.962;2023-12-28T10:36:28;9.50;;;4.10;;
77018;SDS011;66044;53.142;17.962;2023-12-28T10:38:55;10.00;;;4.20;;
77018;SDS011;66044;53.142;17.962;2023-12-28T10:41:26;10.30;;;4.10;;
77018;SDS011;66044;53.142;17.962;2023-12-28T10:44:03;9.30;;;4.00;;
77018;SDS011;66044;53.142;17.962;2023-12-28T10:46:32;9.10;;;4.00;;
77018;SDS011;66044;53.142;17.962;2023-12-28T10:49:10;10.30;;;4.10;;
77018;SDS011;66044;53.142;17.962;2023-12-28T10:51:40;12.00;;;4.30;;
77018;SDS011;66044;53.142;17.962;2023-12-28T10:54:16;11.00;;;4.40;;
77018;SDS011;66044;53.142;17.962;2023-12-28T10:56:50;8.10;;;3.60;;
77018;SDS011;66044;53.142;17.962;2023-12-28T11:00:00;9.20;;;4.00;;
77018;SDS011;66044;53.142;17.962;2023-12-28T11:02:39;8.20;;;3.50;;
77018;SDS011;66044;53.142;17.962;2023-12-28T11:05:20;9.70;;;4.00;;
77018;SDS011;66044;53.142;17.962;2023-12-28T11:07:49;10.30;;;4.40;;
77018;SDS011;66044;53.142;17.962;2023-12-28T11:10:22;9.60;;;4.30;;
77018;SDS011;66044;53.142;17.962;2023-12-28T11:12:53;9.10;;;4.00;;
77018;SDS011;66044;53.142;17.962;2023-12-28T11:15:22;11.50;;;5.00;;
77018;SDS011;66044;53.142;17.962;2023-12-28T11:17:55;9.80;;;4.10;;
77018;SDS011;66044;53.142;17.962;2023-12-28T11:20:22;8.70;;;4.00;;
77018;SDS011;66044;53.142;17.962;2023-12-28T11:22:48;9.40;;;3.90;;
77018;SDS011;66044;53.142;17.962;2023-12-28T11:25:17;9.00;;;3.80;;
77018;SDS011;66044;53.142;17.962;2023-12-28T11:27:45;7.90;;;3.50;;
77018;SDS011;66044;53.142;17.962;2023-12-28T11:30:15;7.90;;;3.10;;
77018;SDS011;66044;53.142;17.962;2023-12-28T11:32:41;7.50;;;3.10;;
77018;SDS011;66044;53.142;17.962;2023-12-28T11:35:12;7.80;;;2.90;;
77018;SDS011;66044;53.142;17.962;2023-12-28T11:37:46;8.10;;;2.90;;
77018;SDS011;66044;53.142;17.962;2023-12-28T11:40:18;9.60;;;3.20;;
77018;SDS011;66044;53.142;17.962;2023-12-28T11:42:52;7.40;;;2.90;;
77018;SDS011;66044;53.142;17.962;2023-12-28T11:45:20;8.70;;;3.20;;
77018;SDS011;66044;53.142;17.962;2023-12-28T11:47:59;9.70;;;3.10;;
77018;SDS011;66044;53.142;17.962;2023-12-28T11:50:28;8.40;;;2.90;;
77018;SDS011;66044;53.142;17.962;2023-12-28T11:53:00;8.00;;;3.30;;
77018;SDS011;66044;53.142;17.962;2023-12-28T11:55:28;8.60;;;3.30;;
77018;SDS011;66044;53.142;17.962;2023-12-28T11:57:56;7.50;;;3.30;;
77018;SDS011;66044;53.142;17.962;2023-12-28T12:00:23;7.90;;;3.60;;
77018;SDS011;66044;53.142;17.962;2023-12-28T12:02:51;8.80;;;3.90;;
77018;SDS011;66044;53.142;17.962;2023-12-28T12:05:17;8.50;;;3.80;;
77018;SDS011;66044;53.142;17.962;2023-12-28T12:07:44;8.90;;;3.60;;
77018;SDS011;66044;53.142;17.962;2023-12-28T12:10:14;8.40;;;3.80;;
77018;SDS011;66044;53.142;17.962;2023-12-28T12:12:42;10.30;;;3.90;;
77018;SDS011;66044;53.142;17.962;2023-12-28T12:15:09;10.60;;;4.00;;
77018;SDS011;66044;53.142;17.962;2023-12-28T12:17:37;9.80;;;3.80;;
77018;SDS011;66044;53.142;17.962;2023-12-28T12:20:03;8.80;;;3.50;;
77018;SDS011;66044;53.142;17.962;2023-12-28T12:22:31;8.50;;;3.40;;
77018;SDS011;66044;53.142;17.962;2023-12-28T12:24:58;10.20;;;4.00;;
77018;SDS011;66044;53.142;17.962;2023-12-28T12:27:30;8.50;;;3.20;;
77018;SDS011;66044;53.142;17.962;2023-12-28T12:29:56;9.90;;;3.50;;
77018;SDS011;66044;53.142;17.962;2023-12-28T12:32:23;11.00;;;4.20;;
77018;SDS011;66044;53.142;17.962;2023-12-28T12:34:50;8.90;;;3.50;;
77018;SDS011;66044;53.142;17.962;2023-12-28T12:37:17;8.30;;;3.40;;
77018;SDS011;66044;53.142;17.962;2023-12-28T12:39:44;8.10;;;2.90;;
77018;SDS011;66044;53.142;17.962;2023-12-28T12:42:14;9.30;;;3.40;;
77018;SDS011;66044;53.142;17.962;2023-12-28T12:44:40;8.60;;;3.30;;
77018;SDS011;66044;53.142;17.962;2023-12-28T12:47:07;8.20;;;3.40;;
77018;SDS011;66044;53.142;17.962;2023-12-28T12:49:33;8.00;;;2.90;;
77018;SDS011;66044;53.142;17.962;2023-12-28T12:52:00;8.50;;;3.20;;
77018;SDS011;66044;53.142;17.962;2023-12-28T12:54:27;7.80;;;2.80;;
77018;SDS011;66044;53.142;17.962;2023-12-28T12:56:54;11.40;;;3.40;;
77018;SDS011;66044;53.142;17.962;2023-12-28T12:59:23;8.50;;;3.70;;
77018;SDS011;66044;53.142;17.962;2023-12-28T13:01:51;7.50;;;3.20;;
77018;SDS011;66044;53.142;17.962;2023-12-28T13:04:19;7.50;;;3.00;;
77018;SDS011;66044;53.142;17.962;2023-12-28T13:06:49;7.10;;;2.70;;
77018;SDS011;66044;53.142;17.962;2023-12-28T13:09:16;7.00;;;2.50;;
77018;SDS011;66044;53.142;17.962;2023-12-28T13:11:42;7.50;;;2.70;;
77018;SDS011;66044;53.142;17.962;2023-12-28T13:14:09;8.20;;;3.50;;
77018;SDS011;66044;53.142;17.962;2023-12-28T13:16:35;7.50;;;2.70;;
77018;SDS011;66044;53.142;17.962;2023-12-28T13:19:02;7.40;;;2.90;;
77018;SDS011;66044;53.142;17.962;2023-12-28T13:21:28;9.30;;;2.80;;
77018;SDS011;66044;53.142;17.962;2023-12-28T13:23:55;8.70;;;3.00;;
77018;SDS011;66044;53.142;17.962;2023-12-28T13:26:23;8.10;;;3.30;;
77018;SDS011;66044;53.142;17.962;2023-12-28T13:28:49;7.40;;;3.00;;
77018;SDS011;66044;53.142;17.962;2023-12-28T13:31:16;6.60;;;2.60;;
77018;SDS011;66044;53.142;17.962;2023-12-28T13:33:44;7.90;;;3.30;;
77018;SDS011;66044;53.142;17.962;2023-12-28T13:36:11;10.30;;;4.00;;
77018;SDS011;66044;53.142;17.962;2023-12-28T13:38:37;8.20;;;3.60;;
77018;SDS011;66044;53.142;17.962;2023-12-28T13:41:04;7.90;;;3.60;;
77018;SDS011;66044;53.142;17.962;2023-12-28T13:43:34;9.00;;;3.80;;
77018;SDS011;66044;53.142;17.962;2023-12-28T13:46:01;9.00;;;3.60;;
77018;SDS011;66044;53.142;17.962;2023-12-28T13:48:30;8.70;;;3.60;;
77018;SDS011;66044;53.142;17.962;2023-12-28T13:50:57;8.30;;;3.40;;
77018;SDS011;66044;53.142;17.962;2023-12-28T13:53:24;10.10;;;4.30;;
77018;SDS011;66044;53.142;17.962;2023-12-28T13:55:50;13.30;;;5.60;;
77018;SDS011;66044;53.142;17.962;2023-12-28T13:58:17;10.80;;;3.90;;
77018;SDS011;66044;53.142;17.962;2023-12-28T14:00:43;14.60;;;5.00;;
77018;SDS011;66044;53.142;17.962;2023-12-28T14:03:10;9.90;;;4.00;;
77018;SDS011;66044;53.142;17.962;2023-12-28T14:05:36;10.00;;;3.50;;
77018;SDS011;66044;53.142;17.962;2023-12-28T14:08:03;8.90;;;3.90;;
77018;SDS011;66044;53.142;17.962;2023-12-28T14:10:30;9.50;;;4.00;;
77018;SDS011;66044;53.142;17.962;2023-12-28T14:12:56;11.50;;;5.00;;
77018;SDS011;66044;53.142;17.962;2023-12-28T14:15:23;9.90;;;4.60;;
77018;SDS011;66044;53.142;17.962;2023-12-28T14:17:50;9.00;;;3.90;;
77018;SDS011;66044;53.142;17.962;2023-12-28T14:20:19;9.30;;;3.80;;
77018;SDS011;66044;53.142;17.962;2023-12-28T14:22:53;9.80;;;3.90;;